Bagram Air Base
OAIX : now visible

Airfield :











YOU CAN JOIN US ON...

 
LOGIN :

Register | Disclaimer

   EN    FR    IT 

 









Legend :    VFR   Marginal VFR   IFR   Intensive IFR   Very Intensive IFR
Visi :
Ceiling :
>= 8 km
>= 3000ft
5 to 8 km
1000 to 3000 ft
1500m to 5 km
500 to 1000 ft
800 to 1500m
200 to 500 ft
< 800m
< 200 ft
Symbols :   Thunderstorms  Fog  Heavy snow  Heavy precipitations  Wind > 20 kt






- Airport Elevation : 4895 ft


OAIX - Bagram Air Base

CURRENT METAR :
  • 030958Z 22005KT 9000 FEW200 19/M03 A3007 RMK AO2A SLP134 T01891034 $

EXPIRED METARs :
  • 030858Z 22005KT 9000 HZ FEW200 19/M02 A3008 RMK AO2A SLP141 T01901024 57034 $
  • 030758Z 18003KT 8000 HZ FEW200 18/01 A3012 RMK AO2A SLP155 T01770014 $
  • 030658Z 00000KT 8000 HZ FEW200 15/01 A3016 RMK AO2A VIS SE-S 4800 SLP172 T01500014 $

TAF TAF OAIX
Valid from the 03 at 07:00 until the 04 at 13:00 UTC


030700Z 0307/0413 23009KT 8000 HZ FEW190 QNH3004INS
BECMG 0400/0401 33009KT 5000 HZ BKN060 QNH3004INS
BECMG 0406/0407 33009KT 8000 HZ BKN060 QNH2998INS
BECMG 0412/0413 33010G15KT 9999 NSW FEW060 QNH3004INS TX17/0310Z TN01/0402Z
OAKX FIR / Asia



MET'MAP, your aeronautical weather chart ! - Copyright ORBIFLY December 2007 - Disclaimer

ORBIFLY MET'MAP TEAM :

Programming & Development : Alexandra Zaïnal
Concept & original design : Baudouin d'Aumeries
Assistance for programming : Marc-Olivier Méhu
Technical & hardware support : Manuel Goepfert

Contact : metmap@orbifly.com




SOURCES & CREDITS :

   NOAA       Earth
Advisory